createdAt,value
2022-08-28T00:00:46.193Z,102015.44
2022-08-28T00:05:47.929Z,102010.22
2022-08-28T00:10:49.928Z,102003.16
2022-08-28T00:15:55.372Z,102000.63
2022-08-28T00:20:57.917Z,102011.00
2022-08-28T00:26:00.374Z,102008.41
2022-08-28T00:31:05.212Z,102015.50
2022-08-28T00:36:06.872Z,102006.91
2022-08-28T00:41:08.372Z,102004.66
2022-08-28T00:46:16.276Z,101995.34
2022-08-28T00:51:38.572Z,102004.13
2022-08-28T00:56:41.228Z,101999.81
2022-08-28T01:01:45.441Z,101997.91
2022-08-28T01:06:52.491Z,101993.81
2022-08-28T01:11:59.410Z,101996.59
2022-08-28T01:17:00.951Z,101989.88
2022-08-28T01:22:37.309Z,101996.28
2022-08-28T01:27:41.815Z,102005.56
2022-08-28T01:32:49.983Z,102004.59
2022-08-28T01:37:52.624Z,101996.66
2022-08-28T01:42:55.096Z,101997.69
2022-08-28T01:47:56.634Z,102001.94
2022-08-28T01:52:58.125Z,102000.28
2022-08-28T01:57:59.926Z,101998.38
2022-08-28T02:03:02.056Z,102003.34
2022-08-28T02:08:05.373Z,102000.44
2022-08-28T02:13:08.290Z,101996.94
2022-08-28T02:18:10.853Z,102010.69
2022-08-28T02:23:12.609Z,102003.25
2022-08-28T02:28:14.412Z,102000.34
2022-08-28T02:33:16.292Z,102003.50
2022-08-28T02:38:18.891Z,102003.50
2022-08-28T02:43:20.444Z,102004.09
2022-08-28T02:48:21.919Z,102011.59
2022-08-28T02:53:23.681Z,102007.94
2022-08-28T02:58:26.860Z,102011.16
2022-08-28T03:03:31.651Z,102008.91
2022-08-28T03:08:33.445Z,102009.94
2022-08-28T03:13:35.296Z,102016.50
2022-08-28T03:18:37.243Z,102012.59
2022-08-28T03:23:39.218Z,102019.19
2022-08-28T03:28:46.670Z,102023.53
2022-08-28T03:33:48.615Z,102028.91
2022-08-28T03:38:52.348Z,102020.63
2022-08-28T03:43:53.825Z,102021.88
2022-08-28T03:48:55.694Z,102021.00
2022-08-28T03:53:59.367Z,102021.88
2022-08-28T03:59:02.251Z,102022.72
2022-08-28T04:04:04.341Z,102027.19
2022-08-28T04:09:05.977Z,102033.56
2022-08-28T04:14:07.534Z,102033.06
2022-08-28T04:19:09.077Z,102039.63
2022-08-28T04:24:13.169Z,102039.81
2022-08-28T04:29:16.021Z,102044.09
2022-08-28T04:34:17.956Z,102054.63
2022-08-28T04:39:19.800Z,102052.66
2022-08-28T04:44:21.286Z,102068.00
2022-08-28T04:49:22.984Z,102076.59
2022-08-28T04:54:27.496Z,102071.75
2022-08-28T04:59:29.610Z,102069.31
2022-08-28T05:04:31.108Z,102073.75
2022-08-28T05:09:34.833Z,102080.63
2022-08-28T05:14:36.641Z,102066.31
2022-08-28T05:19:38.163Z,102086.97
2022-08-28T05:24:40.141Z,102076.56
2022-08-28T05:29:41.641Z,102080.47
2022-08-28T05:34:43.130Z,102085.28
2022-08-28T05:39:44.619Z,102090.06
2022-08-28T05:44:46.107Z,102091.22
2022-08-28T05:49:47.591Z,102085.34
2022-08-28T05:54:52.538Z,102082.91
2022-08-28T05:59:54.022Z,102084.81
2022-08-28T06:04:55.511Z,102086.38
2022-08-28T06:09:57.010Z,102092.78
2022-08-28T06:14:58.762Z,102104.06
2022-08-28T06:20:00.246Z,102087.78
2022-08-28T06:25:03.766Z,102099.56
2022-08-28T06:30:08.845Z,102095.47
2022-08-28T06:35:10.355Z,102096.81
2022-08-28T06:40:12.510Z,102114.13
2022-08-28T06:45:14.041Z,102114.53
2022-08-28T06:50:16.356Z,102113.84
2022-08-28T06:55:18.190Z,102102.19
2022-08-28T07:00:19.803Z,102101.53
2022-08-28T07:05:21.461Z,102113.47
2022-08-28T07:10:22.985Z,102112.44
2022-08-28T07:15:24.476Z,102114.09
2022-08-28T07:20:25.966Z,102123.22
2022-08-28T07:25:27.561Z,102144.19
2022-08-28T07:30:29.258Z,102131.19
2022-08-28T07:35:30.745Z,102150.75
2022-08-28T07:40:32.314Z,102139.44
2022-08-28T07:45:35.818Z,102141.31
2022-08-28T07:50:37.535Z,102146.00
2022-08-28T07:55:39.037Z,102139.03
2022-08-28T08:00:41.382Z,102150.25
2022-08-28T08:05:55.329Z,102158.63
2022-08-28T08:11:02.237Z,102163.13
2022-08-28T08:16:05.751Z,102170.78
2022-08-28T08:21:09.914Z,102172.78
2022-08-28T08:26:13.855Z,102179.22
2022-08-28T08:31:17.088Z,102172.63
2022-08-28T08:36:22.434Z,102172.81
2022-08-28T08:41:47.955Z,102172.59
2022-08-28T08:46:57.861Z,102174.81
2022-08-28T08:52:13.345Z,102182.19
2022-08-28T08:57:15.021Z,102179.91
2022-08-28T09:02:31.539Z,102181.00
2022-08-28T09:07:44.377Z,102172.59
2022-08-28T09:13:00.966Z,102170.41
2022-08-28T09:18:19.166Z,102177.03
2022-08-28T09:23:23.938Z,102161.47
2022-08-28T09:28:37.569Z,102166.66
2022-08-28T09:33:48.852Z,102171.19
2022-08-28T09:39:12.126Z,102181.69
2022-08-28T09:44:17.230Z,102176.31
2022-08-28T09:49:28.699Z,102189.38
2022-08-28T09:54:31.908Z,102191.09
2022-08-28T09:59:33.654Z,102180.63
2022-08-28T10:05:01.040Z,102185.97
2022-08-28T10:10:18.659Z,102196.00
2022-08-28T10:15:43.442Z,102185.50
2022-08-28T10:21:01.291Z,102193.88
2022-08-28T10:26:26.799Z,102186.41
2022-08-28T10:31:37.207Z,102194.94
2022-08-28T10:36:38.788Z,102188.97
2022-08-28T10:41:49.293Z,102186.56
2022-08-28T10:46:53.666Z,102197.28
2022-08-28T10:52:05.189Z,102200.50
2022-08-28T10:57:39.423Z,102193.88
2022-08-28T11:02:45.699Z,102197.09
2022-08-28T11:07:53.078Z,102196.00
2022-08-28T11:12:54.954Z,102202.00
2022-08-28T11:18:15.141Z,102198.78
2022-08-28T11:23:41.532Z,102205.00
2022-08-28T11:28:47.326Z,102179.75
2022-08-28T11:33:52.482Z,102177.63
2022-08-28T11:38:54.168Z,102194.31
2022-08-28T11:44:13.956Z,102207.56
2022-08-28T11:49:27.406Z,102209.06
2022-08-28T11:54:52.916Z,102207.16
2022-08-28T12:00:10.598Z,102195.38
2022-08-28T12:05:15.198Z,102206.09
2022-08-28T12:10:22.609Z,102200.09
2022-08-28T12:15:27.227Z,102199.44
2022-08-28T12:20:58.558Z,102213.75
2022-08-28T12:26:04.702Z,102166.47
2022-08-28T12:31:06.244Z,102210.31
2022-08-28T12:36:15.648Z,102191.72
2022-08-28T12:41:18.346Z,102182.72
2022-08-28T12:46:25.286Z,102206.69
2022-08-28T12:51:30.454Z,102199.34
2022-08-28T12:56:34.869Z,102195.06
2022-08-28T13:01:36.594Z,102185.19
2022-08-28T13:06:39.595Z,102175.56
2022-08-28T13:11:47.350Z,102197.84
2022-08-28T13:16:48.984Z,102152.94
2022-08-28T13:21:58.610Z,102187.75
2022-08-28T13:27:09.029Z,102204.41
2022-08-28T13:32:18.311Z,102187.00
2022-08-28T13:37:46.779Z,102215.00
2022-08-28T13:42:48.555Z,102178.50
2022-08-28T13:47:50.170Z,102172.22
2022-08-28T13:52:51.766Z,102174.25
2022-08-28T13:57:54.500Z,102178.72
2022-08-28T14:03:15.512Z,102177.13
2022-08-28T14:08:17.068Z,102179.91
2022-08-28T14:13:19.824Z,102170.25
2022-08-28T14:18:21.443Z,102171.13
2022-08-28T14:23:23.119Z,102168.72
2022-08-28T14:28:24.659Z,102164.41
2022-08-28T14:33:26.225Z,102198.94
2022-08-28T14:38:29.388Z,102170.66
2022-08-28T14:43:31.597Z,102146.19
2022-08-28T14:48:34.732Z,102170.19
2022-08-28T14:53:37.267Z,102167.34
2022-08-28T14:58:39.333Z,102188.13
2022-08-28T15:03:41.424Z,102178.28
2022-08-28T15:08:43.107Z,102173.91
2022-08-28T15:13:46.700Z,102150.16
2022-08-28T15:18:48.398Z,102173.78
2022-08-28T15:23:51.633Z,102166.53
2022-08-28T15:28:55.869Z,102159.13
2022-08-28T15:33:58.113Z,102169.78
2022-08-28T15:39:18.444Z,102160.34
2022-08-28T15:44:20.034Z,102157.91
2022-08-28T15:49:23.890Z,102154.47
2022-08-28T15:54:25.765Z,102157.00
2022-08-28T15:59:48.846Z,102150.84
2022-08-28T16:04:49.708Z,102142.94
2022-08-28T16:09:52.186Z,102114.97
2022-08-28T16:14:53.902Z,102142.19
2022-08-28T16:19:55.456Z,102139.38
2022-08-28T16:24:57.347Z,102135.91
2022-08-28T16:29:58.933Z,102135.03
2022-08-28T16:35:03.036Z,102135.25
2022-08-28T16:40:06.575Z,102147.19
2022-08-28T16:45:08.588Z,102140.09
2022-08-28T16:50:14.088Z,102119.94
2022-08-28T16:55:16.109Z,102138.88
2022-08-28T17:00:18.828Z,102117.41
2022-08-28T17:05:20.715Z,102151.44
2022-08-28T17:10:24.554Z,102126.78
2022-08-28T17:15:26.399Z,102118.78
2022-08-28T17:20:46.813Z,102129.66
2022-08-28T17:26:41.337Z,102149.59
2022-08-28T17:31:43.847Z,102154.94
2022-08-28T17:36:45.583Z,102148.94
2022-08-28T17:41:47.134Z,102161.47
2022-08-28T17:46:48.731Z,102159.41
2022-08-28T17:51:51.079Z,102156.91
2022-08-28T17:56:53.257Z,102161.53
2022-08-28T18:01:55.424Z,102165.38
2022-08-28T18:06:57.072Z,102164.25
2022-08-28T18:11:58.626Z,102158.44
2022-08-28T18:17:00.560Z,102154.34
2022-08-28T18:22:02.187Z,102142.75
2022-08-28T18:27:05.168Z,102147.41
2022-08-28T18:32:07.633Z,102166.50
2022-08-28T18:37:09.608Z,102167.25
2022-08-28T18:42:11.267Z,102156.00
2022-08-28T18:47:12.897Z,102157.53
2022-08-28T18:52:14.503Z,102148.25
2022-08-28T18:57:18.617Z,102167.06
2022-08-28T19:02:21.184Z,102168.59
2022-08-28T19:07:22.828Z,102142.09
2022-08-28T19:12:25.667Z,102174.44
2022-08-28T19:17:27.917Z,102194.81
2022-08-28T19:22:33.897Z,102198.94
2022-08-28T19:27:36.047Z,102193.03
2022-08-28T19:32:37.618Z,102214.59
2022-08-28T19:37:42.584Z,102210.47
2022-08-28T19:42:44.454Z,102198.44
2022-08-28T19:47:47.048Z,102198.44
2022-08-28T19:52:48.591Z,102208.47
2022-08-28T19:57:50.452Z,102216.00
2022-08-28T20:02:52.483Z,102217.28
2022-08-28T20:07:54.207Z,102216.13
2022-08-28T20:12:56.315Z,102212.97
2022-08-28T20:17:57.923Z,102213.72
2022-08-28T20:22:59.645Z,102195.50
2022-08-28T20:28:02.005Z,102207.22
2022-08-28T20:33:03.749Z,102217.78
2022-08-28T20:38:05.725Z,102214.00
2022-08-28T20:43:07.257Z,102182.66
2022-08-28T20:48:08.799Z,102211.09
2022-08-28T20:53:10.346Z,102210.97
2022-08-28T20:58:13.333Z,102221.59
2022-08-28T21:03:15.703Z,102226.31
2022-08-28T21:08:17.463Z,102224.69
2022-08-28T21:13:19.564Z,102225.25
2022-08-28T21:18:21.096Z,102217.84
2022-08-28T21:23:24.946Z,102198.72
2022-08-28T21:28:26.704Z,102207.72
2022-08-28T21:33:28.745Z,102220.59
2022-08-28T21:38:30.285Z,102170.88
2022-08-28T21:43:32.207Z,102231.09
2022-08-28T21:48:36.147Z,102234.34
2022-08-28T21:53:39.007Z,102231.69
2022-08-28T21:58:40.637Z,102242.47
2022-08-28T22:03:43.980Z,102248.16
2022-08-28T22:08:47.107Z,102238.84
2022-08-28T22:13:49.764Z,102244.50
2022-08-28T22:18:51.771Z,102245.91
2022-08-28T22:23:53.318Z,102238.91
2022-08-28T22:28:55.887Z,102213.22
2022-08-28T22:33:57.648Z,102250.69
2022-08-28T22:38:59.151Z,102239.72
2022-08-28T22:44:00.723Z,102231.88
2022-08-28T22:49:02.877Z,102240.56
2022-08-28T22:54:04.965Z,102216.91
2022-08-28T22:59:06.515Z,102220.69
2022-08-28T23:04:09.117Z,102235.44
2022-08-28T23:09:10.946Z,102225.81
2022-08-28T23:14:13.123Z,102232.50
2022-08-28T23:19:15.311Z,102244.69
2022-08-28T23:24:17.569Z,102220.28
2022-08-28T23:29:19.185Z,102208.06
2022-08-28T23:34:20.972Z,102193.94
2022-08-28T23:39:23.002Z,102216.34
2022-08-28T23:44:26.237Z,102204.59
2022-08-28T23:49:28.192Z,102206.34
2022-08-28T23:54:30.448Z,102184.50
2022-08-28T23:59:32.624Z,102221.19
